sensor_id;sensor_type;location;lat;lon;timestamp;pressure;altitude;pressure_sealevel;temperature;humidity
44140;BME280;29803;51.048;4.686;2023-02-23T00:00:39;101258.00;;;7.87;100.00
44140;BME280;29803;51.048;4.686;2023-02-23T00:03:10;101256.06;;;7.89;100.00
44140;BME280;29803;51.048;4.686;2023-02-23T00:05:40;101256.19;;;7.88;100.00
44140;BME280;29803;51.048;4.686;2023-02-23T00:08:10;101259.72;;;7.88;100.00
44140;BME280;29803;51.048;4.686;2023-02-23T00:10:41;101255.22;;;7.89;100.00
44140;BME280;29803;51.048;4.686;2023-02-23T00:13:13;101254.38;;;7.88;100.00
44140;BME280;29803;51.048;4.686;2023-02-23T00:15:44;101262.50;;;7.87;100.00
44140;BME280;29803;51.048;4.686;2023-02-23T00:18:14;101252.97;;;7.84;100.00
44140;BME280;29803;51.048;4.686;2023-02-23T00:20:54;101258.56;;;7.81;100.00
44140;BME280;29803;51.048;4.686;2023-02-23T00:23:26;101256.75;;;7.82;100.00
44140;BME280;29803;51.048;4.686;2023-02-23T00:25:57;101257.72;;;7.81;100.00
44140;BME280;29803;51.048;4.686;2023-02-23T00:28:28;101255.91;;;7.81;100.00
44140;BME280;29803;51.048;4.686;2023-02-23T00:31:01;101252.22;;;7.82;100.00
44140;BME280;29803;51.048;4.686;2023-02-23T00:33:31;101253.22;;;7.81;100.00
44140;BME280;29803;51.048;4.686;2023-02-23T00:36:06;101256.03;;;7.79;100.00
44140;BME280;29803;51.048;4.686;2023-02-23T00:38:39;101260.13;;;7.84;100.00
44140;BME280;29803;51.048;4.686;2023-02-23T00:41:12;101246.88;;;7.82;100.00
44140;BME280;29803;51.048;4.686;2023-02-23T00:43:45;101255.91;;;7.81;100.00
44140;BME280;29803;51.048;4.686;2023-02-23T00:46:18;101245.22;;;7.81;100.00
44140;BME280;29803;51.048;4.686;2023-02-23T00:48:50;101261.25;;;7.81;100.00
44140;BME280;29803;51.048;4.686;2023-02-23T00:51:22;101256.19;;;7.88;100.00
44140;BME280;29803;51.048;4.686;2023-02-23T00:53:53;101249.88;;;7.89;100.00
44140;BME280;29803;51.048;4.686;2023-02-23T00:56:25;101250.00;;;7.87;100.00
44140;BME280;29803;51.048;4.686;2023-02-23T00:58:55;101252.66;;;7.87;100.00
44140;BME280;29803;51.048;4.686;2023-02-23T01:01:27;101256.31;;;7.86;100.00
44140;BME280;29803;51.048;4.686;2023-02-23T01:03:57;101251.97;;;7.85;100.00
44140;BME280;29803;51.048;4.686;2023-02-23T01:06:27;101253.66;;;7.86;100.00
44140;BME280;29803;51.048;4.686;2023-02-23T01:08:58;101253.50;;;7.88;100.00
44140;BME280;29803;51.048;4.686;2023-02-23T01:11:29;101250.97;;;7.86;100.00
44140;BME280;29803;51.048;4.686;2023-02-23T01:14:01;101259.56;;;7.90;100.00
44140;BME280;29803;51.048;4.686;2023-02-23T01:16:32;101257.03;;;7.88;100.00
44140;BME280;29803;51.048;4.686;2023-02-23T01:19:04;101254.38;;;7.88;100.00
44140;BME280;29803;51.048;4.686;2023-02-23T01:21:36;101260.69;;;7.87;100.00
44140;BME280;29803;51.048;4.686;2023-02-23T01:24:07;101250.97;;;7.86;100.00
44140;BME280;29803;51.048;4.686;2023-02-23T01:26:41;101257.16;;;7.87;100.00
44140;BME280;29803;51.048;4.686;2023-02-23T01:29:15;101257.16;;;7.87;100.00
44140;BME280;29803;51.048;4.686;2023-02-23T01:31:48;101253.66;;;7.86;100.00
44140;BME280;29803;51.048;4.686;2023-02-23T01:34:20;101258.00;;;7.87;100.00
44140;BME280;29803;51.048;4.686;2023-02-23T01:36:51;101261.53;;;7.88;100.00
44140;BME280;29803;51.048;4.686;2023-02-23T01:39:21;101264.06;;;7.89;100.00
44140;BME280;29803;51.048;4.686;2023-02-23T01:41:52;101264.91;;;7.90;100.00
44140;BME280;29803;51.048;4.686;2023-02-23T01:46:54;101268.16;;;7.93;100.00
44140;BME280;29803;51.048;4.686;2023-02-23T01:49:27;101266.34;;;7.94;100.00
44140;BME280;29803;51.048;4.686;2023-02-23T01:52:02;101265.50;;;7.93;100.00
44140;BME280;29803;51.048;4.686;2023-02-23T01:54:36;101261.25;;;7.91;100.00
44140;BME280;29803;51.048;4.686;2023-02-23T01:57:10;101262.25;;;7.90;100.00
44140;BME280;29803;51.048;4.686;2023-02-23T01:59:44;101261.25;;;7.91;100.00
44140;BME280;29803;51.048;4.686;2023-02-23T02:02:17;101263.66;;;7.94;100.00
44140;BME280;29803;51.048;4.686;2023-02-23T02:04:50;101265.50;;;7.93;100.00
44140;BME280;29803;51.048;4.686;2023-02-23T02:07:23;101256.47;;;7.94;100.00
44140;BME280;29803;51.048;4.686;2023-02-23T02:09:57;101259.84;;;7.96;100.00
44140;BME280;29803;51.048;4.686;2023-02-23T02:15:49;101262.66;;;7.95;100.00
44140;BME280;29803;51.048;4.686;2023-02-23T02:18:46;101260.84;;;7.95;100.00
44140;BME280;29803;51.048;4.686;2023-02-23T02:24:55;101256.19;;;7.97;100.00
44140;BME280;29803;51.048;4.686;2023-02-23T02:34:21;101249.47;;;7.93;100.00
44140;BME280;29803;51.048;4.686;2023-02-23T02:43:24;101247.75;;;7.92;100.00
44140;BME280;29803;51.048;4.686;2023-02-23T02:46:04;101250.16;;;7.95;100.00
44140;BME280;29803;51.048;4.686;2023-02-23T02:48:47;101252.13;;;7.93;100.00
44140;BME280;29803;51.048;4.686;2023-02-23T02:51:39;101253.09;;;7.92;100.00
44140;BME280;29803;51.048;4.686;2023-02-23T02:57:24;101250.31;;;8.03;100.00
44140;BME280;29803;51.048;4.686;2023-02-23T02:59:56;101259.84;;;8.06;100.00
44140;BME280;29803;51.048;4.686;2023-02-23T03:02:45;101259.72;;;8.08;100.00
44140;BME280;29803;51.048;4.686;2023-02-23T03:05:41;101260.28;;;8.01;100.00
44140;BME280;29803;51.048;4.686;2023-02-23T03:08:53;101267.44;;;7.91;100.00
44140;BME280;29803;51.048;4.686;2023-02-23T03:12:06;101267.00;;;7.86;100.00
44140;BME280;29803;51.048;4.686;2023-02-23T03:15:07;101264.75;;;7.82;100.00
44140;BME280;29803;51.048;4.686;2023-02-23T03:21:15;101262.50;;;7.77;100.00
44140;BME280;29803;51.048;4.686;2023-02-23T03:27:46;101272.47;;;7.65;100.00
44140;BME280;29803;51.048;4.686;2023-02-23T03:37:23;101270.75;;;7.55;100.00
44140;BME280;29803;51.048;4.686;2023-02-23T03:40:27;101274.41;;;7.53;100.00
44140;BME280;29803;51.048;4.686;2023-02-23T03:43:21;101268.63;;;7.48;100.00
44140;BME280;29803;51.048;4.686;2023-02-23T03:46:12;101281.69;;;7.51;100.00
44140;BME280;29803;51.048;4.686;2023-02-23T03:49:04;101286.75;;;7.55;100.00
44140;BME280;29803;51.048;4.686;2023-02-23T03:52:02;101285.19;;;7.52;100.00
44140;BME280;29803;51.048;4.686;2023-02-23T03:54:57;101290.69;;;7.50;100.00
44140;BME280;29803;51.048;4.686;2023-02-23T03:57:51;101284.34;;;7.51;100.00
44140;BME280;29803;51.048;4.686;2023-02-23T04:00:45;101298.00;;;7.48;100.00
44140;BME280;29803;51.048;4.686;2023-02-23T04:03:39;101297.25;;;7.46;100.00
44140;BME280;29803;51.048;4.686;2023-02-23T04:06:35;101286.72;;;7.45;100.00
44140;BME280;29803;51.048;4.686;2023-02-23T04:09:25;101284.22;;;7.43;100.00
44140;BME280;29803;51.048;4.686;2023-02-23T04:12:20;101292.47;;;7.40;100.00
44140;BME280;29803;51.048;4.686;2023-02-23T04:15:17;101294.28;;;7.40;100.00
44140;BME280;29803;51.048;4.686;2023-02-23T04:18:12;101297.13;;;7.38;100.00
44140;BME280;29803;51.048;4.686;2023-02-23T04:20:44;101296.66;;;7.33;100.00
44140;BME280;29803;51.048;4.686;2023-02-23T04:23:14;101298.47;;;7.33;100.00
44140;BME280;29803;51.048;4.686;2023-02-23T04:25:45;101303.25;;;7.29;100.00
44140;BME280;29803;51.048;4.686;2023-02-23T04:28:17;101307.75;;;7.29;100.00
44140;BME280;29803;51.048;4.686;2023-02-23T04:30:48;101313.78;;;7.31;100.00
44140;BME280;29803;51.048;4.686;2023-02-23T04:33:19;101315.34;;;7.33;100.00
44140;BME280;29803;51.048;4.686;2023-02-23T04:35:52;101318.13;;;7.32;100.00
44140;BME280;29803;51.048;4.686;2023-02-23T04:38:23;101314.91;;;7.28;100.00
44140;BME280;29803;51.048;4.686;2023-02-23T04:40:53;101315.88;;;7.27;100.00
44140;BME280;29803;51.048;4.686;2023-02-23T04:43:24;101317.97;;;7.23;100.00
44140;BME280;29803;51.048;4.686;2023-02-23T04:45:54;101309.13;;;7.23;100.00
44140;BME280;29803;51.048;4.686;2023-02-23T04:48:25;101318.09;;;7.22;100.00
44140;BME280;29803;51.048;4.686;2023-02-23T04:50:55;101312.75;;;7.22;100.00
44140;BME280;29803;51.048;4.686;2023-02-23T04:53:26;101319.47;;;7.16;100.00
44140;BME280;29803;51.048;4.686;2023-02-23T04:55:57;101315.25;;;7.14;100.00
44140;BME280;29803;51.048;4.686;2023-02-23T04:58:27;101320.84;;;7.11;100.00
44140;BME280;29803;51.048;4.686;2023-02-23T05:01:04;101321.09;;;7.08;100.00
44140;BME280;29803;51.048;4.686;2023-02-23T05:03:35;101322.22;;;7.05;100.00
44140;BME280;29803;51.048;4.686;2023-02-23T05:06:06;101321.38;;;7.05;100.00
44140;BME280;29803;51.048;4.686;2023-02-23T05:08:36;101324.88;;;7.05;100.00
44140;BME280;29803;51.048;4.686;2023-02-23T05:11:07;101317.88;;;7.04;100.00
44140;BME280;29803;51.048;4.686;2023-02-23T05:13:37;101317.13;;;7.02;100.00
44140;BME280;29803;51.048;4.686;2023-02-23T05:16:08;101318.84;;;7.03;100.00
44140;BME280;29803;51.048;4.686;2023-02-23T05:18:39;101318.84;;;7.03;100.00
44140;BME280;29803;51.048;4.686;2023-02-23T05:21:09;101323.75;;;7.08;100.00
44140;BME280;29803;51.048;4.686;2023-02-23T05:23:40;101325.72;;;7.06;100.00
44140;BME280;29803;51.048;4.686;2023-02-23T05:26:11;101322.47;;;7.02;100.00
44140;BME280;29803;51.048;4.686;2023-02-23T05:28:42;101328.09;;;6.99;100.00
44140;BME280;29803;51.048;4.686;2023-02-23T05:31:13;101335.34;;;6.97;100.00
44140;BME280;29803;51.048;4.686;2023-02-23T05:33:44;101340.84;;;6.95;100.00
44140;BME280;29803;51.048;4.686;2023-02-23T05:36:16;101341.69;;;6.96;100.00
44140;BME280;29803;51.048;4.686;2023-02-23T05:38:47;101350.53;;;6.96;100.00
44140;BME280;29803;51.048;4.686;2023-02-23T05:41:20;101347.84;;;6.96;100.00
44140;BME280;29803;51.048;4.686;2023-02-23T05:43:54;101350.53;;;6.96;100.00
44140;BME280;29803;51.048;4.686;2023-02-23T05:46:25;101344.63;;;6.93;100.00
44140;BME280;29803;51.048;4.686;2023-02-23T05:48:58;101349.09;;;6.92;100.00
44140;BME280;29803;51.048;4.686;2023-02-23T05:51:32;101351.06;;;6.90;100.00
44140;BME280;29803;51.048;4.686;2023-02-23T05:54:03;101352.03;;;6.89;100.00
44140;BME280;29803;51.048;4.686;2023-02-23T05:56:34;101351.31;;;6.87;100.00
44140;BME280;29803;51.048;4.686;2023-02-23T05:59:05;101353.97;;;6.87;100.00
44140;BME280;29803;51.048;4.686;2023-02-23T06:01:36;101352.19;;;6.88;100.00
44140;BME280;29803;51.048;4.686;2023-02-23T06:04:06;101354.69;;;6.89;100.00
44140;BME280;29803;51.048;4.686;2023-02-23T06:06:37;101359.06;;;6.90;100.00
44140;BME280;29803;51.048;4.686;2023-02-23T06:09:07;101363.53;;;6.90;100.00
44140;BME280;29803;51.048;4.686;2023-02-23T06:11:38;101366.22;;;6.90;100.00
44140;BME280;29803;51.048;4.686;2023-02-23T06:14:08;101362.41;;;6.92;100.00
44140;BME280;29803;51.048;4.686;2023-02-23T06:16:39;101367.75;;;6.92;100.00
44140;BME280;29803;51.048;4.686;2023-02-23T06:19:10;101376.50;;;6.94;100.00
44140;BME280;29803;51.048;4.686;2023-02-23T06:21:40;101379.16;;;6.94;100.00
44140;BME280;29803;51.048;4.686;2023-02-23T06:24:11;101372.84;;;6.95;100.00
44140;BME280;29803;51.048;4.686;2023-02-23T06:26:43;101376.94;;;6.99;100.00
44140;BME280;29803;51.048;4.686;2023-02-23T06:29:13;101380.72;;;6.97;100.00
44140;BME280;29803;51.048;4.686;2023-02-23T06:31:44;101383.97;;;7.00;100.00
44140;BME280;29803;51.048;4.686;2023-02-23T06:34:15;101383.59;;;7.05;100.00
44140;BME280;29803;51.048;4.686;2023-02-23T06:36:46;101384.19;;;7.09;100.00
44140;BME280;29803;51.048;4.686;2023-02-23T06:39:16;101383.44;;;7.07;100.00
44140;BME280;29803;51.048;4.686;2023-02-23T06:41:47;101385.41;;;7.05;100.00
44140;BME280;29803;51.048;4.686;2023-02-23T06:44:17;101388.06;;;7.05;100.00
44140;BME280;29803;51.048;4.686;2023-02-23T06:46:48;101380.06;;;7.05;100.00
44140;BME280;29803;51.048;4.686;2023-02-23T06:49:18;101381.63;;;7.07;100.00
44140;BME280;29803;51.048;4.686;2023-02-23T06:51:49;101383.44;;;7.07;100.00
44140;BME280;29803;51.048;4.686;2023-02-23T06:54:19;101388.78;;;7.07;100.00
44140;BME280;29803;51.048;4.686;2023-02-23T06:56:50;101395.81;;;7.08;100.00
44140;BME280;29803;51.048;4.686;2023-02-23T06:59:22;101397.38;;;7.10;100.00
44140;BME280;29803;51.048;4.686;2023-02-23T07:01:53;101407.91;;;7.12;100.00
44140;BME280;29803;51.048;4.686;2023-02-23T07:04:24;101409.59;;;7.13;100.00
44140;BME280;29803;51.048;4.686;2023-02-23T07:06:55;101413.59;;;7.18;100.00
44140;BME280;29803;51.048;4.686;2023-02-23T07:09:25;101422.75;;;7.25;100.00
44140;BME280;29803;51.048;4.686;2023-02-23T07:11:56;101428.41;;;7.32;100.00
44140;BME280;29803;51.048;4.686;2023-02-23T07:14:26;101429.00;;;7.36;100.00
44140;BME280;29803;51.048;4.686;2023-02-23T07:16:57;101437.16;;;7.34;100.00
44140;BME280;29803;51.048;4.686;2023-02-23T07:19:28;101432.50;;;7.36;100.00
44140;BME280;29803;51.048;4.686;2023-02-23T07:21:59;101435.56;;;7.32;100.00
44140;BME280;29803;51.048;4.686;2023-02-23T07:24:29;101435.47;;;7.33;100.00
44140;BME280;29803;51.048;4.686;2023-02-23T07:27:00;101438.97;;;7.34;100.00
44140;BME280;29803;51.048;4.686;2023-02-23T07:29:31;101441.38;;;7.37;100.00
44140;BME280;29803;51.048;4.686;2023-02-23T07:32:01;101442.09;;;7.39;100.00
44140;BME280;29803;51.048;4.686;2023-02-23T07:34:32;101442.22;;;7.37;100.00
44140;BME280;29803;51.048;4.686;2023-02-23T07:37:02;101441.25;;;7.38;100.00
44140;BME280;29803;51.048;4.686;2023-02-23T07:39:33;101445.22;;;7.44;100.00
44140;BME280;29803;51.048;4.686;2023-02-23T07:42:03;101450.16;;;7.48;100.00
44140;BME280;29803;51.048;4.686;2023-02-23T07:44:34;101456.91;;;7.52;100.00
44140;BME280;29803;51.048;4.686;2023-02-23T07:47:05;101452.03;;;7.58;100.00
44140;BME280;29803;51.048;4.686;2023-02-23T07:49:36;101460.09;;;7.67;100.00
44140;BME280;29803;51.048;4.686;2023-02-23T07:52:06;101461.47;;;7.62;100.00
44140;BME280;29803;51.048;4.686;2023-02-23T07:54:37;101473.97;;;7.61;100.00
44140;BME280;29803;51.048;4.686;2023-02-23T07:57:07;101468.19;;;7.56;100.00
44140;BME280;29803;51.048;4.686;2023-02-23T07:59:38;101475.09;;;7.59;100.00
44140;BME280;29803;51.048;4.686;2023-02-23T08:02:11;101484.50;;;7.63;100.00
44140;BME280;29803;51.048;4.686;2023-02-23T08:04:42;101479.19;;;7.63;100.00
44140;BME280;29803;51.048;4.686;2023-02-23T08:07:12;101488.91;;;7.64;100.00
44140;BME280;29803;51.048;4.686;2023-02-23T08:09:43;101495.94;;;7.65;100.00
44140;BME280;29803;51.048;4.686;2023-02-23T08:12:13;101506.63;;;7.65;100.00
44140;BME280;29803;51.048;4.686;2023-02-23T08:14:44;101511.97;;;7.65;100.00
44140;BME280;29803;51.048;4.686;2023-02-23T08:17:15;101513.63;;;7.66;100.00
44140;BME280;29803;51.048;4.686;2023-02-23T08:19:46;101521.13;;;7.72;100.00
44140;BME280;29803;51.048;4.686;2023-02-23T08:22:16;101515.53;;;7.75;100.00
44140;BME280;29803;51.048;4.686;2023-02-23T08:24:47;101520.59;;;7.78;100.00
44140;BME280;29803;51.048;4.686;2023-02-23T08:27:18;101519.75;;;7.77;100.00
44140;BME280;29803;51.048;4.686;2023-02-23T08:29:48;101518.78;;;7.78;100.00
44140;BME280;29803;51.048;4.686;2023-02-23T08:32:21;101513.75;;;7.85;100.00
44140;BME280;29803;51.048;4.686;2023-02-23T08:34:52;101517.59;;;7.92;100.00
44140;BME280;29803;51.048;4.686;2023-02-23T08:37:23;101518.03;;;7.97;100.00
44140;BME280;29803;51.048;4.686;2023-02-23T08:39:55;101528.22;;;8.03;100.00
44140;BME280;29803;51.048;4.686;2023-02-23T08:42:26;101529.59;;;8.08;100.00
44140;BME280;29803;51.048;4.686;2023-02-23T08:44:57;101534.44;;;8.14;100.00
44140;BME280;29803;51.048;4.686;2023-02-23T08:47:30;101538.53;;;8.18;100.00
44140;BME280;29803;51.048;4.686;2023-02-23T08:50:03;101541.91;;;8.20;100.00
44140;BME280;29803;51.048;4.686;2023-02-23T08:52:34;101537.88;;;8.25;100.00
44140;BME280;29803;51.048;4.686;2023-02-23T08:55:05;101535.34;;;8.24;100.00
44140;BME280;29803;51.048;4.686;2023-02-23T08:57:39;101537.72;;;8.27;100.00
44140;BME280;29803;51.048;4.686;2023-02-23T09:00:10;101545.47;;;8.30;100.00
44140;BME280;29803;51.048;4.686;2023-02-23T09:02:45;101544.97;;;8.36;100.00
44140;BME280;29803;51.048;4.686;2023-02-23T09:05:17;101549.06;;;8.40;100.00
44140;BME280;29803;51.048;4.686;2023-02-23T09:07:48;101551.34;;;8.45;100.00
44140;BME280;29803;51.048;4.686;2023-02-23T09:10:19;101556.16;;;8.51;100.00
44140;BME280;29803;51.048;4.686;2023-02-23T09:12:52;101561.94;;;8.56;100.00
44140;BME280;29803;51.048;4.686;2023-02-23T09:15:23;101551.22;;;8.56;100.00
44140;BME280;29803;51.048;4.686;2023-02-23T09:17:54;101559.00;;;8.59;100.00
44140;BME280;29803;51.048;4.686;2023-02-23T09:20:24;101560.28;;;8.65;100.00
44140;BME280;29803;51.048;4.686;2023-02-23T09:22:55;101561.69;;;8.69;100.00
44140;BME280;29803;51.048;4.686;2023-02-23T09:25:26;101561.69;;;8.69;100.00
44140;BME280;29803;51.048;4.686;2023-02-23T09:27:58;101560.00;;;8.68;100.00
44140;BME280;29803;51.048;4.686;2023-02-23T09:30:29;101559.47;;;8.74;100.00
44140;BME280;29803;51.048;4.686;2023-02-23T09:32:59;101566.09;;;8.79;100.00
44140;BME280;29803;51.048;4.686;2023-02-23T09:35:31;101567.38;;;8.85;100.00
44140;BME280;29803;51.048;4.686;2023-02-23T09:38:04;101576.81;;;8.89;100.00
44140;BME280;29803;51.048;4.686;2023-02-23T09:40:45;101576.13;;;8.97;100.00
44140;BME280;29803;51.048;4.686;2023-02-23T09:49:14;101588.66;;;8.96;100.00
44140;BME280;29803;51.048;4.686;2023-02-23T09:51:49;101587.66;;;8.97;100.00
44140;BME280;29803;51.048;4.686;2023-02-23T09:54:25;101584.16;;;8.97;100.00
44140;BME280;29803;51.048;4.686;2023-02-23T09:56:59;101574.28;;;8.97;100.00
44140;BME280;29803;51.048;4.686;2023-02-23T09:59:33;101585.59;;;9.11;100.00
44140;BME280;29803;51.048;4.686;2023-02-23T10:02:26;101587.44;;;9.20;100.00
44140;BME280;29803;51.048;4.686;2023-02-23T10:05:04;101592.50;;;9.23;100.00
44140;BME280;29803;51.048;4.686;2023-02-23T10:07:49;101594.31;;;9.22;100.00
44140;BME280;29803;51.048;4.686;2023-02-23T10:15:55;101592.09;;;9.37;100.00
44140;BME280;29803;51.048;4.686;2023-02-23T10:18:45;101603.63;;;9.38;100.00
44140;BME280;29803;51.048;4.686;2023-02-23T10:21:35;101599.28;;;9.46;100.00
44140;BME280;29803;51.048;4.686;2023-02-23T10:26:59;101592.25;;;9.65;100.00
44140;BME280;29803;51.048;4.686;2023-02-23T10:29:36;101593.06;;;9.84;100.00
44140;BME280;29803;51.048;4.686;2023-02-23T10:35:12;101602.91;;;9.94;100.00
44140;BME280;29803;51.048;4.686;2023-02-23T10:37:43;101600.94;;;9.96;100.00
44140;BME280;29803;51.048;4.686;2023-02-23T10:40:16;101596.66;;;10.12;100.00
44140;BME280;29803;51.048;4.686;2023-02-23T10:42:47;101595.56;;;10.25;100.00
44140;BME280;29803;51.048;4.686;2023-02-23T10:45:20;101584.22;;;10.31;100.00
44140;BME280;29803;51.048;4.686;2023-02-23T10:48:10;101583.91;;;10.34;100.00
44140;BME280;29803;51.048;4.686;2023-02-23T10:50:43;101589.44;;;10.32;100.00
44140;BME280;29803;51.048;4.686;2023-02-23T10:56:06;101601.41;;;10.38;100.00
44140;BME280;29803;51.048;4.686;2023-02-23T11:01:44;101594.81;;;10.32;100.00
44140;BME280;29803;51.048;4.686;2023-02-23T11:04:33;101593.94;;;10.42;100.00
44140;BME280;29803;51.048;4.686;2023-02-23T11:07:21;101596.28;;;10.54;100.00
44140;BME280;29803;51.048;4.686;2023-02-23T11:09:52;101603.38;;;10.46;100.00
44140;BME280;29803;51.048;4.686;2023-02-23T11:12:37;101599.13;;;10.43;100.00
44140;BME280;29803;51.048;4.686;2023-02-23T11:15:27;101595.38;;;10.26;100.00
44140;BME280;29803;51.048;4.686;2023-02-23T11:18:01;101595.38;;;10.17;100.00
44140;BME280;29803;51.048;4.686;2023-02-23T11:20:35;101595.38;;;10.17;100.00
44140;BME280;29803;51.048;4.686;2023-02-23T11:25:41;101586.50;;;10.16;100.00
44140;BME280;29803;51.048;4.686;2023-02-23T11:28:32;101591.88;;;10.16;100.00
44140;BME280;29803;51.048;4.686;2023-02-23T11:31:18;101590.47;;;10.02;100.00
44140;BME280;29803;51.048;4.686;2023-02-23T11:33:52;101595.59;;;9.96;100.00
44140;BME280;29803;51.048;4.686;2023-02-23T11:36:26;101594.16;;;10.01;100.00
44140;BME280;29803;51.048;4.686;2023-02-23T11:42:03;101592.13;;;10.23;100.00
44140;BME280;29803;51.048;4.686;2023-02-23T11:44:38;101589.00;;;10.37;100.00
44140;BME280;29803;51.048;4.686;2023-02-23T11:47:27;101586.03;;;10.40;100.00
44140;BME280;29803;51.048;4.686;2023-02-23T11:50:00;101584.31;;;10.39;100.00
44140;BME280;29803;51.048;4.686;2023-02-23T11:52:33;101586.03;;;10.40;100.00
44140;BME280;29803;51.048;4.686;2023-02-23T11:55:06;101586.47;;;10.35;100.00
44140;BME280;29803;51.048;4.686;2023-02-23T11:57:37;101589.41;;;10.42;100.00
44140;BME280;29803;51.048;4.686;2023-02-23T12:00:11;101589.38;;;10.52;100.00
44140;BME280;29803;51.048;4.686;2023-02-23T12:02:49;101581.72;;;10.57;100.00
44140;BME280;29803;51.048;4.686;2023-02-23T12:05:24;101581.16;;;10.53;100.00
44140;BME280;29803;51.048;4.686;2023-02-23T12:08:15;101581.31;;;10.52;100.00
44140;BME280;29803;51.048;4.686;2023-02-23T12:10:52;101575.66;;;10.55;100.00
44140;BME280;29803;51.048;4.686;2023-02-23T12:13:26;101567.47;;;10.56;100.00
44140;BME280;29803;51.048;4.686;2023-02-23T12:16:16;101569.25;;;10.66;100.00
44140;BME280;29803;51.048;4.686;2023-02-23T12:22:09;101576.84;;;10.98;100.00
44140;BME280;29803;51.048;4.686;2023-02-23T12:24:46;101571.34;;;11.17;100.00
44140;BME280;29803;51.048;4.686;2023-02-23T12:30:21;101562.22;;;11.10;100.00
44140;BME280;29803;51.048;4.686;2023-02-23T12:32:58;101569.22;;;10.93;100.00
44140;BME280;29803;51.048;4.686;2023-02-23T12:35:50;101561.38;;;10.82;100.00
44140;BME280;29803;51.048;4.686;2023-02-23T12:38:55;101567.03;;;10.79;100.00
44140;BME280;29803;51.048;4.686;2023-02-23T12:41:47;101576.09;;;10.78;100.00
44140;BME280;29803;51.048;4.686;2023-02-23T12:47:06;101571.28;;;10.54;100.00
44140;BME280;29803;51.048;4.686;2023-02-23T12:49:43;101569.53;;;10.35;100.00
44140;BME280;29803;51.048;4.686;2023-02-23T12:52:20;101561.22;;;10.19;100.00
44140;BME280;29803;51.048;4.686;2023-02-23T12:54:52;101569.44;;;10.07;100.00
44140;BME280;29803;51.048;4.686;2023-02-23T12:57:31;101568.34;;;10.00;100.00
44140;BME280;29803;51.048;4.686;2023-02-23T13:14:16;101575.28;;;9.83;100.00
44140;BME280;29803;51.048;4.686;2023-02-23T13:16:51;101576.84;;;9.86;100.00
44140;BME280;29803;51.048;4.686;2023-02-23T13:19:33;101578.81;;;9.84;100.00
44140;BME280;29803;51.048;4.686;2023-02-23T13:24:57;101577.09;;;9.93;100.00
44140;BME280;29803;51.048;4.686;2023-02-23T13:27:35;101572.72;;;9.92;100.00
44140;BME280;29803;51.048;4.686;2023-02-23T13:30:22;101560.88;;;9.94;100.00
44140;BME280;29803;51.048;4.686;2023-02-23T13:32:53;101571.59;;;9.94;100.00
44140;BME280;29803;51.048;4.686;2023-02-23T13:35:24;101566.66;;;9.99;100.00
44140;BME280;29803;51.048;4.686;2023-02-23T13:38:16;101568.34;;;10.00;100.00
44140;BME280;29803;51.048;4.686;2023-02-23T13:43:47;101565.94;;;9.97;100.00
44140;BME280;29803;51.048;4.686;2023-02-23T13:46:29;101566.19;;;10.04;100.00
44140;BME280;29803;51.048;4.686;2023-02-23T13:49:21;101569.47;;;9.98;100.00
44140;BME280;29803;51.048;4.686;2023-02-23T13:52:01;101573.28;;;9.95;100.00
44140;BME280;29803;51.048;4.686;2023-02-23T13:54:51;101576.97;;;9.94;100.00
44140;BME280;29803;51.048;4.686;2023-02-23T13:57:22;101573.72;;;10.00;100.00
44140;BME280;29803;51.048;4.686;2023-02-23T13:59:54;101577.31;;;10.09;100.00
44140;BME280;29803;51.048;4.686;2023-02-23T14:05:18;101586.38;;;10.08;100.00
44140;BME280;29803;51.048;4.686;2023-02-23T14:07:53;101580.88;;;10.09;100.00
44140;BME280;29803;51.048;4.686;2023-02-23T14:10:26;101578.19;;;10.09;100.00
44140;BME280;29803;51.048;4.686;2023-02-23T14:15:47;101578.31;;;10.18;100.00
44140;BME280;29803;51.048;4.686;2023-02-23T14:21:01;101580.16;;;10.27;100.00
44140;BME280;29803;51.048;4.686;2023-02-23T14:26:35;101588.00;;;10.38;100.00
44140;BME280;29803;51.048;4.686;2023-02-23T14:29:14;101582.19;;;10.43;100.00
44140;BME280;29803;51.048;4.686;2023-02-23T14:34:47;101586.34;;;10.27;100.00
44140;BME280;29803;51.048;4.686;2023-02-23T14:37:23;101577.63;;;10.25;100.00
44140;BME280;29803;51.048;4.686;2023-02-23T14:39:59;101582.97;;;10.25;100.00
44140;BME280;29803;51.048;4.686;2023-02-23T14:42:31;101590.19;;;10.15;100.00
44140;BME280;29803;51.048;4.686;2023-02-23T14:45:11;101576.63;;;10.07;100.00
44140;BME280;29803;51.048;4.686;2023-02-23T14:47:47;101578.63;;;10.05;100.00
44140;BME280;29803;51.048;4.686;2023-02-23T14:50:38;101581.16;;;10.06;100.00
44140;BME280;29803;51.048;4.686;2023-02-23T14:53:29;101573.28;;;10.05;100.00
44140;BME280;29803;51.048;4.686;2023-02-23T14:56:00;101580.31;;;10.06;100.00
44140;BME280;29803;51.048;4.686;2023-02-23T14:58:31;101578.19;;;10.09;100.00
44140;BME280;29803;51.048;4.686;2023-02-23T15:01:02;101584.09;;;10.13;100.00
44140;BME280;29803;51.048;4.686;2023-02-23T15:03:33;101593.13;;;10.22;100.00
44140;BME280;29803;51.048;4.686;2023-02-23T15:06:04;101590.59;;;10.30;100.00
44140;BME280;29803;51.048;4.686;2023-02-23T15:08:38;101596.34;;;10.35;100.00
44140;BME280;29803;51.048;4.686;2023-02-23T15:11:12;101599.44;;;10.40;100.00
44140;BME280;29803;51.048;4.686;2023-02-23T15:13:47;101589.25;;;10.44;100.00
44140;BME280;29803;51.048;4.686;2023-02-23T15:16:27;101580.06;;;10.46;100.00
44140;BME280;29803;51.048;4.686;2023-02-23T15:18:59;101581.19;;;10.44;100.00
44140;BME280;29803;51.048;4.686;2023-02-23T15:21:31;101588.44;;;10.33;100.00